Time;durP1;ratioP1;P1;durP2;ratioP2;P2;SDS_P1;SDS_P2;PMS_P1;PMS_P2;Temp;Humidity;BMP_temperature;BMP_pressure;BME280_temperature;BME280_humidity;BME280_pressure;Samples;Min_cycle;Max_cycle;Signal;HPM_P1;HPM_P2
2021/10/22 00:02:13;;;;;;;4.23;3.03;;;;;;;;;;5029493;28;20178;-65
2021/10/22 00:04:42;;;;;;;6.23;2.63;;;;;;;;;;5032395;28;20228;-66
2021/10/22 00:07:08;;;;;;;7.70;3.13;;;;;;;;;;5029444;28;20182;-67
2021/10/22 00:09:37;;;;;;;10.70;3.53;;;;;;;;;;5010302;28;20197;-64
2021/10/22 00:12:06;;;;;;;5.23;2.73;;;;;;;;;;5026964;28;20793;-66
2021/10/22 00:14:32;;;;;;;6.13;3.03;;;;;;;;;;5008577;28;20597;-65
2021/10/22 00:16:59;;;;;;;10.37;3.60;;;;;;;;;;5014206;28;20228;-64
2021/10/22 00:19:27;;;;;;;7.07;3.13;;;;;;;;;;5012141;28;20181;-65
2021/10/22 00:22:04;;;;;;;10.30;2.90;;;;;;;;;;5028980;28;20178;-65
2021/10/22 00:24:30;;;;;;;7.97;3.13;;;;;;;;;;5014453;28;20182;-64
2021/10/22 00:27:07;;;;;;;5.13;2.20;;;;;;;;;;5028417;28;20641;-65
2021/10/22 00:29:33;;;;;;;6.57;2.67;;;;;;;;;;5011090;28;20188;-65
2021/10/22 00:32:04;;;;;;;13.73;3.63;;;;;;;;;;5011315;28;20185;-65
2021/10/22 00:34:31;;;;;;;10.93;2.57;;;;;;;;;;5009380;28;20234;-65
2021/10/22 00:36:58;;;;;;;6.23;3.03;;;;;;;;;;5010791;28;20197;-65
2021/10/22 00:39:24;;;;;;;6.73;2.60;;;;;;;;;;5010656;28;20209;-65
2021/10/22 00:41:51;;;;;;;9.40;2.43;;;;;;;;;;5010922;28;20633;-65
2021/10/22 00:44:18;;;;;;;7.60;3.17;;;;;;;;;;5009981;28;20206;-65
2021/10/22 00:46:44;;;;;;;4.87;2.70;;;;;;;;;;5028495;28;21001;-65
2021/10/22 00:49:11;;;;;;;8.13;3.07;;;;;;;;;;5010609;28;20272;-65
2021/10/22 00:51:40;;;;;;;6.80;3.00;;;;;;;;;;5008640;28;20706;-65
2021/10/22 00:54:10;;;;;;;5.90;3.07;;;;;;;;;;5033634;28;20235;-64
2021/10/22 00:56:36;;;;;;;6.40;2.80;;;;;;;;;;5033587;28;20197;-64
2021/10/22 00:59:04;;;;;;;6.00;3.30;;;;;;;;;;5009461;28;20178;-65
2021/10/22 01:01:30;;;;;;;9.20;2.90;;;;;;;;;;5008747;28;20619;-65
2021/10/22 01:03:56;;;;;;;5.63;2.33;;;;;;;;;;5026791;28;20648;-64
2021/10/22 01:06:22;;;;;;;8.17;3.13;;;;;;;;;;5027275;28;20189;-64
2021/10/22 01:08:49;;;;;;;6.73;2.67;;;;;;;;;;5026915;28;20222;-64
2021/10/22 01:11:15;;;;;;;9.03;2.73;;;;;;;;;;5009992;28;20198;-64
2021/10/22 01:13:41;;;;;;;4.97;2.50;;;;;;;;;;5026835;28;20177;-64
2021/10/22 01:16:07;;;;;;;5.53;3.00;;;;;;;;;;5028008;28;20194;-64
2021/10/22 01:18:33;;;;;;;6.63;2.80;;;;;;;;;;5027291;28;20202;-64
2021/10/22 01:21:03;;;;;;;9.77;2.73;;;;;;;;;;5026517;28;20181;-64
2021/10/22 01:23:33;;;;;;;5.20;2.57;;;;;;;;;;5023405;28;20190;-64
2021/10/22 01:25:59;;;;;;;6.57;2.43;;;;;;;;;;5026603;28;20578;-64
2021/10/22 01:28:25;;;;;;;7.60;2.27;;;;;;;;;;5026555;28;20190;-64
2021/10/22 01:30:52;;;;;;;6.90;2.23;;;;;;;;;;5027758;28;20268;-64
2021/10/22 01:33:18;;;;;;;6.63;3.03;;;;;;;;;;5008687;28;20220;-64
2021/10/22 01:35:51;;;;;;;5.00;2.40;;;;;;;;;;5028033;28;20201;-64
2021/10/22 01:38:21;;;;;;;4.50;2.40;;;;;;;;;;5026793;28;20208;-64
2021/10/22 01:40:49;;;;;;;7.17;2.30;;;;;;;;;;5027055;28;20267;-64
2021/10/22 01:43:16;;;;;;;3.10;2.30;;;;;;;;;;5008447;28;20190;-64
2021/10/22 01:45:42;;;;;;;3.60;2.00;;;;;;;;;;5009594;28;20182;-64
2021/10/22 01:48:08;;;;;;;5.70;2.87;;;;;;;;;;5010534;28;20193;-64
2021/10/22 01:50:34;;;;;;;11.37;2.93;;;;;;;;;;5009933;28;20208;-64
2021/10/22 01:53:00;;;;;;;4.03;2.13;;;;;;;;;;5025726;28;20197;-65
2021/10/22 01:55:26;;;;;;;5.73;2.33;;;;;;;;;;5027129;28;20189;-64
2021/10/22 01:57:52;;;;;;;4.50;2.40;;;;;;;;;;5008217;28;20193;-64
2021/10/22 02:00:22;;;;;;;5.23;2.07;;;;;;;;;;5027260;28;20599;-64
2021/10/22 02:02:48;;;;;;;6.00;2.20;;;;;;;;;;5009053;28;20200;-64
2021/10/22 02:05:14;;;;;;;4.23;1.87;;;;;;;;;;5009923;28;20197;-64
2021/10/22 02:07:40;;;;;;;3.53;2.20;;;;;;;;;;5026361;28;20202;-64
2021/10/22 02:10:06;;;;;;;5.73;2.00;;;;;;;;;;5009496;28;20200;-65
2021/10/22 02:12:32;;;;;;;8.77;2.40;;;;;;;;;;5025633;28;20251;-64
2021/10/22 02:14:59;;;;;;;4.20;2.77;;;;;;;;;;5008785;28;20181;-64
2021/10/22 02:17:25;;;;;;;6.50;2.27;;;;;;;;;;5028733;28;20209;-64
2021/10/22 02:19:51;;;;;;;6.53;2.10;;;;;;;;;;5026547;28;20368;-64
2021/10/22 02:22:17;;;;;;;6.90;2.20;;;;;;;;;;5008950;28;20578;-64
2021/10/22 02:24:43;;;;;;;4.67;2.57;;;;;;;;;;5027537;28;20647;-64
2021/10/22 02:27:10;;;;;;;6.93;2.63;;;;;;;;;;5025730;28;20186;-64
2021/10/22 02:29:38;;;;;;;4.17;2.10;;;;;;;;;;5027137;28;20192;-64
2021/10/22 02:32:04;;;;;;;6.77;2.60;;;;;;;;;;5009234;28;20190;-64
2021/10/22 02:34:30;;;;;;;4.83;2.13;;;;;;;;;;5027099;28;20205;-64
2021/10/22 02:36:57;;;;;;;7.27;2.50;;;;;;;;;;5011226;28;20229;-65
2021/10/22 02:39:23;;;;;;;6.47;2.03;;;;;;;;;;5031021;28;20174;-64
2021/10/22 02:41:57;;;;;;;6.03;2.47;;;;;;;;;;5029841;28;20178;-64
2021/10/22 02:44:23;;;;;;;4.00;2.47;;;;;;;;;;5010771;28;20193;-65
2021/10/22 02:46:49;;;;;;;8.87;2.67;;;;;;;;;;5030058;28;20224;-65
2021/10/22 02:49:15;;;;;;;5.77;2.33;;;;;;;;;;5012843;28;20655;-66
2021/10/22 02:51:41;;;;;;;5.87;2.40;;;;;;;;;;5013305;28;20194;-65
2021/10/22 02:54:07;;;;;;;4.20;2.20;;;;;;;;;;5030436;28;20188;-66
2021/10/22 02:56:34;;;;;;;7.87;2.60;;;;;;;;;;5002775;28;20309;-65
2021/10/22 02:59:00;;;;;;;5.23;2.30;;;;;;;;;;5010010;28;20182;-65
2021/10/22 03:01:40;;;;;;;8.67;3.20;;;;;;;;;;5008404;28;20178;-65
2021/10/22 03:04:24;;;;;;;4.77;2.27;;;;;;;;;;5012357;28;20186;-65
2021/10/22 03:06:53;;;;;;;6.17;3.13;;;;;;;;;;5030331;28;20625;-65
2021/10/22 03:09:19;;;;;;;4.20;2.10;;;;;;;;;;5031135;28;20225;-65
2021/10/22 03:11:45;;;;;;;6.13;2.70;;;;;;;;;;5032582;28;20992;-65
2021/10/22 03:14:11;;;;;;;5.27;2.30;;;;;;;;;;5011498;28;20192;-65
2021/10/22 03:16:37;;;;;;;7.23;4.60;;;;;;;;;;5016371;28;20559;-65
2021/10/22 03:19:03;;;;;;;6.40;2.83;;;;;;;;;;5034761;28;20178;-65
2021/10/22 03:21:43;;;;;;;3.60;2.40;;;;;;;;;;5011341;28;20328;-65
2021/10/22 03:24:10;;;;;;;5.50;2.67;;;;;;;;;;5010373;28;20221;-65
2021/10/22 03:26:36;;;;;;;3.80;2.13;;;;;;;;;;5029478;28;20213;-66
2021/10/22 03:29:02;;;;;;;7.53;2.70;;;;;;;;;;5010528;28;20185;-65
2021/10/22 03:31:28;;;;;;;6.03;3.07;;;;;;;;;;5028321;28;20192;-65
2021/10/22 03:33:55;;;;;;;6.43;2.80;;;;;;;;;;5029183;28;21114;-65
2021/10/22 03:36:21;;;;;;;4.60;2.23;;;;;;;;;;5022814;28;20201;-65
2021/10/22 03:38:47;;;;;;;9.70;3.47;;;;;;;;;;5029545;28;20166;-65
2021/10/22 03:41:13;;;;;;;9.07;2.67;;;;;;;;;;5011843;28;20276;-66
2021/10/22 03:46:28;;;;;;;5.43;2.50;;;;;;;;;;5010868;28;20643;-65
2021/10/22 03:48:55;;;;;;;8.53;2.40;;;;;;;;;;5027854;28;20200;-66
2021/10/22 03:51:21;;;;;;;8.80;2.70;;;;;;;;;;5012117;28;20228;-66
2021/10/22 03:53:47;;;;;;;5.33;2.10;;;;;;;;;;5028875;28;20185;-66
2021/10/22 03:56:13;;;;;;;3.93;1.90;;;;;;;;;;5029368;28;20637;-66
2021/10/22 03:58:39;;;;;;;4.50;2.43;;;;;;;;;;5028246;28;20181;-65
2021/10/22 04:01:05;;;;;;;7.53;2.97;;;;;;;;;;5029029;28;20638;-66
2021/10/22 04:03:31;;;;;;;12.30;2.60;;;;;;;;;;5027903;28;20179;-66
2021/10/22 04:05:57;;;;;;;6.73;2.67;;;;;;;;;;5029495;28;20193;-66
2021/10/22 04:08:26;;;;;;;6.53;3.07;;;;;;;;;;5010695;28;20221;-66
2021/10/22 04:10:52;;;;;;;6.73;3.13;;;;;;;;;;5028970;28;20181;-66
2021/10/22 04:13:19;;;;;;;5.63;2.33;;;;;;;;;;5028062;28;20201;-66
2021/10/22 04:15:45;;;;;;;7.47;2.40;;;;;;;;;;5011117;28;20302;-66
2021/10/22 04:18:11;;;;;;;4.97;2.23;;;;;;;;;;5029063;28;20174;-68
2021/10/22 04:20:38;;;;;;;6.27;2.87;;;;;;;;;;5010075;28;20182;-67
2021/10/22 04:23:22;;;;;;;6.50;2.90;;;;;;;;;;5026570;28;20513;-68
2021/10/22 04:25:49;;;;;;;5.23;2.27;;;;;;;;;;5009897;28;20243;-68
2021/10/22 04:28:22;;;;;;;7.13;2.30;;;;;;;;;;5008637;28;20202;-68
2021/10/22 04:30:48;;;;;;;4.57;2.17;;;;;;;;;;5010350;28;20200;-68
2021/10/22 04:33:21;;;;;;;6.63;3.43;;;;;;;;;;5009508;28;20219;-68
2021/10/22 04:35:50;;;;;;;5.10;2.87;;;;;;;;;;5009660;28;20245;-69
2021/10/22 04:41:30;;;;;;;5.27;2.20;;;;;;;;;;4985064;28;20270;-68
2021/10/22 04:43:56;;;;;;;6.10;2.97;;;;;;;;;;4965599;28;20290;-68
2021/10/22 04:46:22;;;;;;;3.40;2.67;;;;;;;;;;5007653;28;20215;-69
2021/10/22 04:48:49;;;;;;;5.30;2.30;;;;;;;;;;5027075;28;20201;-69
2021/10/22 04:51:15;;;;;;;5.53;2.37;;;;;;;;;;5027868;28;20221;-66
2021/10/22 04:53:41;;;;;;;5.95;2.80;;;;;;;;;;5011280;28;20413;-69
2021/10/22 04:56:07;;;;;;;5.33;2.50;;;;;;;;;;5027578;28;20289;-69
2021/10/22 04:58:33;;;;;;;3.10;2.40;;;;;;;;;;5008329;28;20209;-69
2021/10/22 05:01:00;;;;;;;4.17;2.73;;;;;;;;;;5025174;28;20189;-68
2021/10/22 05:03:26;;;;;;;5.50;2.30;;;;;;;;;;5005942;28;20182;-68
2021/10/22 05:05:52;;;;;;;6.80;2.50;;;;;;;;;;5009542;28;20198;-68
2021/10/22 05:08:18;;;;;;;5.53;2.30;;;;;;;;;;5027155;28;20221;-69
2021/10/22 05:10:44;;;;;;;5.90;2.40;;;;;;;;;;5027309;28;20307;-69
2021/10/22 05:13:10;;;;;;;5.10;2.30;;;;;;;;;;5026064;28;20190;-68
2021/10/22 05:15:36;;;;;;;6.93;2.47;;;;;;;;;;5009851;28;20681;-68
2021/10/22 05:18:03;;;;;;;5.77;2.87;;;;;;;;;;5009043;28;20182;-69
2021/10/22 05:20:29;;;;;;;5.33;2.23;;;;;;;;;;5008547;28;20320;-68
2021/10/22 05:22:55;;;;;;;5.27;2.50;;;;;;;;;;5006802;28;20185;-67
2021/10/22 05:25:21;;;;;;;8.63;2.63;;;;;;;;;;5009071;28;20236;-69
2021/10/22 05:27:48;;;;;;;6.13;2.60;;;;;;;;;;5022533;28;20327;-68
2021/10/22 05:30:15;;;;;;;5.50;2.40;;;;;;;;;;5008293;28;20196;-68
2021/10/22 05:32:42;;;;;;;6.30;2.43;;;;;;;;;;5008273;28;20544;-67
2021/10/22 05:35:09;;;;;;;4.37;2.00;;;;;;;;;;5027087;28;20181;-69
2021/10/22 05:37:35;;;;;;;4.03;2.23;;;;;;;;;;5013979;28;20565;-68
2021/10/22 05:40:01;;;;;;;5.00;2.90;;;;;;;;;;5026256;28;20194;-65
2021/10/22 05:42:27;;;;;;;4.63;2.00;;;;;;;;;;5026355;28;20173;-70
2021/10/22 05:44:53;;;;;;;6.60;2.70;;;;;;;;;;5026352;28;20173;-67
2021/10/22 05:47:19;;;;;;;6.03;3.13;;;;;;;;;;5026513;28;20182;-68
2021/10/22 05:49:45;;;;;;;3.83;2.67;;;;;;;;;;5009130;28;20178;-68
2021/10/22 05:52:12;;;;;;;5.07;2.33;;;;;;;;;;5026701;28;20205;-69
2021/10/22 05:54:38;;;;;;;5.37;2.57;;;;;;;;;;5025466;28;20930;-69
2021/10/22 05:57:04;;;;;;;5.30;2.10;;;;;;;;;;5008165;28;20230;-68
2021/10/22 05:59:30;;;;;;;6.23;2.40;;;;;;;;;;5007606;28;20186;-68
2021/10/22 06:01:57;;;;;;;7.77;1.93;;;;;;;;;;5026101;28;20201;-67
2021/10/22 06:04:23;;;;;;;5.83;2.80;;;;;;;;;;5015070;28;20192;-69
2021/10/22 06:06:50;;;;;;;8.17;2.60;;;;;;;;;;5033422;28;20177;-68
2021/10/22 06:09:16;;;;;;;7.33;2.50;;;;;;;;;;5029206;28;20232;-68
2021/10/22 06:11:42;;;;;;;5.70;2.03;;;;;;;;;;5001125;28;20182;-69
2021/10/22 06:14:08;;;;;;;6.43;2.53;;;;;;;;;;5028557;28;20196;-68
2021/10/22 06:16:35;;;;;;;6.83;2.23;;;;;;;;;;5029134;28;20244;-68
2021/10/22 06:19:04;;;;;;;8.90;3.10;;;;;;;;;;5010576;28;20651;-68
2021/10/22 06:21:37;;;;;;;6.60;2.40;;;;;;;;;;5030385;28;20608;-68
2021/10/22 06:24:04;;;;;;;4.23;2.20;;;;;;;;;;5029024;28;20244;-69
2021/10/22 06:26:32;;;;;;;4.70;2.30;;;;;;;;;;5011352;28;20276;-68
2021/10/22 06:29:04;;;;;;;6.50;3.57;;;;;;;;;;5008238;28;20648;-69
2021/10/22 06:31:36;;;;;;;5.33;2.10;;;;;;;;;;5012666;28;20209;-68
2021/10/22 06:34:06;;;;;;;4.87;2.60;;;;;;;;;;5010970;28;20193;-68
2021/10/22 06:36:32;;;;;;;6.17;2.47;;;;;;;;;;5013133;28;20340;-67
2021/10/22 06:38:58;;;;;;;5.13;2.37;;;;;;;;;;5030289;28;20178;-68
2021/10/22 06:41:27;;;;;;;7.30;2.60;;;;;;;;;;5013645;28;20178;-68
2021/10/22 06:43:53;;;;;;;6.10;2.77;;;;;;;;;;5010074;28;20772;-67
2021/10/22 06:46:27;;;;;;;5.27;2.73;;;;;;;;;;5030988;28;20185;-68
2021/10/22 06:48:56;;;;;;;4.57;2.40;;;;;;;;;;5003372;28;20205;-68
2021/10/22 06:51:22;;;;;;;4.17;2.30;;;;;;;;;;5009707;28;20190;-67
2021/10/22 06:54:03;;;;;;;5.37;2.67;;;;;;;;;;5017197;28;20185;-67
2021/10/22 06:56:29;;;;;;;6.33;2.57;;;;;;;;;;5024651;28;20193;-67
2021/10/22 06:59:00;;;;;;;8.30;2.27;;;;;;;;;;5011148;28;20201;-67
2021/10/22 07:01:43;;;;;;;4.23;2.83;;;;;;;;;;5012861;28;20174;-67
2021/10/22 07:04:11;;;;;;;3.87;2.13;;;;;;;;;;5030278;28;20232;-67
2021/10/22 07:09:23;;;;;;;4.43;2.53;;;;;;;;;;5030686;28;20299;-68
2021/10/22 07:11:52;;;;;;;6.43;2.93;;;;;;;;;;5021523;28;20185;-68
2021/10/22 07:14:18;;;;;;;3.47;2.20;;;;;;;;;;5028528;28;20564;-67
2021/10/22 07:16:44;;;;;;;4.47;1.97;;;;;;;;;;5030687;28;20533;-67
2021/10/22 07:19:10;;;;;;;7.10;2.33;;;;;;;;;;5029454;28;20186;-68
2021/10/22 07:21:43;;;;;;;5.93;2.80;;;;;;;;;;5030627;28;20205;-67
2021/10/22 07:24:18;;;;;;;6.70;2.53;;;;;;;;;;5030467;28;20197;-67
2021/10/22 07:26:44;;;;;;;5.23;2.40;;;;;;;;;;5029766;28;20620;-67
2021/10/22 07:29:10;;;;;;;4.97;2.60;;;;;;;;;;5028564;28;20209;-67
2021/10/22 07:31:36;;;;;;;6.23;2.37;;;;;;;;;;5029550;28;20450;-67
2021/10/22 07:34:02;;;;;;;3.70;2.23;;;;;;;;;;5011986;28;20190;-68
2021/10/22 07:36:29;;;;;;;6.87;2.67;;;;;;;;;;5011940;28;20205;-66
2021/10/22 07:38:55;;;;;;;4.57;2.40;;;;;;;;;;5027507;28;20185;-67
2021/10/22 07:41:21;;;;;;;5.70;2.10;;;;;;;;;;5030106;28;20174;-67
2021/10/22 07:43:47;;;;;;;4.03;2.27;;;;;;;;;;5010974;28;20173;-67
2021/10/22 07:46:14;;;;;;;5.33;2.70;;;;;;;;;;5011187;28;20192;-67
2021/10/22 07:48:42;;;;;;;4.97;2.50;;;;;;;;;;5028182;28;20636;-67
2021/10/22 07:51:09;;;;;;;4.23;2.00;;;;;;;;;;5010493;28;20186;-67
2021/10/22 07:53:35;;;;;;;9.47;2.77;;;;;;;;;;5008411;28;20715;-67
2021/10/22 07:56:01;;;;;;;6.33;2.30;;;;;;;;;;5028369;28;20229;-67
2021/10/22 07:58:27;;;;;;;5.60;2.10;;;;;;;;;;5027994;28;20188;-67
2021/10/22 08:00:53;;;;;;;6.40;2.57;;;;;;;;;;5010752;28;20532;-68
2021/10/22 08:03:20;;;;;;;4.97;2.93;;;;;;;;;;5010195;28;20651;-67
2021/10/22 08:05:46;;;;;;;4.43;1.93;;;;;;;;;;5010262;28;20479;-68
2021/10/22 08:08:12;;;;;;;6.10;2.23;;;;;;;;;;5009847;28;20623;-67
2021/10/22 08:10:38;;;;;;;5.87;2.40;;;;;;;;;;5028839;28;20301;-66
2021/10/22 08:13:09;;;;;;;7.50;2.60;;;;;;;;;;5009405;28;20174;-67
2021/10/22 08:15:37;;;;;;;5.20;2.40;;;;;;;;;;5028040;28;20170;-68
2021/10/22 08:18:03;;;;;;;5.53;2.37;;;;;;;;;;5009920;28;20453;-68
2021/10/22 08:20:46;;;;;;;3.83;2.13;;;;;;;;;;5028726;28;20316;-67
2021/10/22 08:23:13;;;;;;;4.07;2.10;;;;;;;;;;5009601;28;20162;-67
2021/10/22 08:25:39;;;;;;;7.17;2.80;;;;;;;;;;5027879;28;20566;-66
2021/10/22 08:28:05;;;;;;;6.87;2.70;;;;;;;;;;5027250;28;20531;-67
2021/10/22 08:30:31;;;;;;;8.30;2.53;;;;;;;;;;5015182;28;20546;-67
2021/10/22 08:32:58;;;;;;;3.50;2.10;;;;;;;;;;5040747;28;20182;-67
2021/10/22 08:35:25;;;;;;;7.07;2.30;;;;;;;;;;5027139;28;20196;-66
2021/10/22 08:37:51;;;;;;;5.27;2.47;;;;;;;;;;5009648;28;20208;-67
2021/10/22 08:40:18;;;;;;;7.50;2.40;;;;;;;;;;5010182;28;20543;-67
2021/10/22 08:42:51;;;;;;;8.37;2.57;;;;;;;;;;5008701;28;20174;-66
2021/10/22 08:45:18;;;;;;;5.67;2.17;;;;;;;;;;5009217;28;20168;-68
2021/10/22 08:47:44;;;;;;;5.00;2.60;;;;;;;;;;5019937;28;20249;-67
2021/10/22 08:50:17;;;;;;;7.07;2.90;;;;;;;;;;5027676;28;20649;-67
2021/10/22 08:52:44;;;;;;;8.40;3.17;;;;;;;;;;5005665;28;20204;-67
2021/10/22 08:55:14;;;;;;;9.43;2.93;;;;;;;;;;5042080;28;20577;-67
2021/10/22 08:57:42;;;;;;;10.70;2.83;;;;;;;;;;5024830;28;20643;-67
2021/10/22 09:00:13;;;;;;;4.83;3.10;;;;;;;;;;5009966;28;20506;-67
2021/10/22 09:02:48;;;;;;;4.43;2.17;;;;;;;;;;5013332;28;20783;-66
2021/10/22 09:05:29;;;;;;;3.80;2.33;;;;;;;;;;5022946;28;20173;-67
2021/10/22 09:08:25;;;;;;;4.80;2.27;;;;;;;;;;5007064;28;20209;-67
2021/10/22 09:10:49;;;;;;;7.80;2.67;;;;;;;;;;5015665;28;20288;-67
2021/10/22 09:13:17;;;;;;;6.60;2.53;;;;;;;;;;5002551;28;20186;-67
2021/10/22 09:15:44;;;;;;;5.13;2.00;;;;;;;;;;5007634;28;20219;-67
2021/10/22 09:18:18;;;;;;;7.67;2.43;;;;;;;;;;5006756;28;20182;-67
2021/10/22 09:20:48;;;;;;;7.27;2.23;;;;;;;;;;5021087;28;20172;-66
2021/10/22 09:23:22;;;;;;;6.30;2.97;;;;;;;;;;5008835;28;20174;-67
2021/10/22 09:25:48;;;;;;;15.57;2.73;;;;;;;;;;5007800;28;20832;-67
2021/10/22 09:28:15;;;;;;;7.73;2.67;;;;;;;;;;5024403;28;20751;-67
2021/10/22 09:30:49;;;;;;;8.67;2.67;;;;;;;;;;5007143;28;20201;-67
2021/10/22 09:33:17;;;;;;;6.57;3.10;;;;;;;;;;5009150;28;20192;-67
2021/10/22 09:35:51;;;;;;;6.07;2.97;;;;;;;;;;5008843;28;20285;-68
2021/10/22 09:38:20;;;;;;;8.07;3.87;;;;;;;;;;5008068;28;20212;-67
2021/10/22 09:40:58;;;;;;;7.07;2.63;;;;;;;;;;5047130;28;20161;-67
2021/10/22 09:43:29;;;;;;;14.57;3.10;;;;;;;;;;5008353;28;20231;-67
2021/10/22 09:46:27;;;;;;;10.83;2.73;;;;;;;;;;5025364;28;20642;-67
2021/10/22 09:48:57;;;;;;;4.83;2.37;;;;;;;;;;4964937;28;20194;-67
2021/10/22 09:51:28;;;;;;;10.10;4.07;;;;;;;;;;5011982;28;20223;-67
2021/10/22 09:53:55;;;;;;;3.97;2.43;;;;;;;;;;5007412;28;20186;-67
2021/10/22 09:56:26;;;;;;;6.10;3.10;;;;;;;;;;5024962;28;20528;-67
2021/10/22 09:58:56;;;;;;;6.30;2.70;;;;;;;;;;5026680;28;20192;-66
2021/10/22 10:01:27;;;;;;;6.37;3.27;;;;;;;;;;5026095;28;20173;-67
2021/10/22 10:03:54;;;;;;;5.07;2.50;;;;;;;;;;5010934;28;20605;-67
2021/10/22 10:06:20;;;;;;;9.93;2.70;;;;;;;;;;5032161;28;20200;-62
2021/10/22 10:08:46;;;;;;;8.27;2.90;;;;;;;;;;5024761;28;20319;-62
2021/10/22 10:11:13;;;;;;;13.87;4.20;;;;;;;;;;5034813;28;20178;-63
2021/10/22 10:13:40;;;;;;;8.85;2.78;;;;;;;;;;5008690;28;20484;-61
2021/10/22 10:16:07;;;;;;;5.27;2.53;;;;;;;;;;5009245;28;20237;-60
2021/10/22 10:18:45;;;;;;;7.93;2.40;;;;;;;;;;5008482;28;20185;-61
2021/10/22 10:21:14;;;;;;;4.63;2.00;;;;;;;;;;5029288;28;20196;-60
2021/10/22 10:23:42;;;;;;;7.07;2.63;;;;;;;;;;5009166;28;20178;-61
2021/10/22 10:26:28;;;;;;;6.13;2.10;;;;;;;;;;5036385;28;20170;-60
2021/10/22 10:28:56;;;;;;;10.40;2.90;;;;;;;;;;5024576;28;20182;-61
2021/10/22 10:31:27;;;;;;;10.57;2.70;;;;;;;;;;5024882;28;20178;-60
2021/10/22 10:33:55;;;;;;;8.00;4.37;;;;;;;;;;5024619;28;20182;-60
2021/10/22 10:36:40;;;;;;;9.87;3.47;;;;;;;;;;5024127;28;20282;-60
2021/10/22 10:39:06;;;;;;;3.27;2.33;;;;;;;;;;5028098;28;20303;-60
2021/10/22 10:41:35;;;;;;;8.90;4.10;;;;;;;;;;5025994;28;20609;-60
2021/10/22 10:44:27;;;;;;;12.77;5.10;;;;;;;;;;5174915;22;20807;-79
2021/10/22 10:46:53;;;;;;;12.30;5.00;;;;;;;;;;5019169;28;20204;-80
2021/10/22 10:49:51;;;;;;;9.80;4.27;;;;;;;;;;5020745;28;20182;-80
2021/10/22 10:52:36;;;;;;;7.87;3.70;;;;;;;;;;5029757;28;20562;-80
2021/10/22 10:55:25;;;;;;;6.13;3.17;;;;;;;;;;5014624;28;20263;-80
2021/10/22 11:00:23;;;;;;;7.23;3.33;;;;;;;;;;5014455;28;20221;-58
2021/10/22 11:03:02;;;;;;;10.67;4.17;;;;;;;;;;4996725;28;20324;-58
2021/10/22 11:05:44;;;;;;;5.87;2.63;;;;;;;;;;5171856;22;20242;-61
2021/10/22 11:08:18;;;;;;;7.27;4.10;;;;;;;;;;5025572;28;20261;-60
2021/10/22 11:13:21;;;;;;;8.33;3.20;;;;;;;;;;5090438;22;20244;-60
2021/10/22 11:18:23;;;;;;;10.53;3.23;;;;;;;;;;5092746;22;20225;-85
2021/10/22 11:20:50;;;;;;;6.70;3.07;;;;;;;;;;5035951;28;20197;-85
2021/10/22 11:23:16;;;;;;;7.07;2.57;;;;;;;;;;5226630;22;20571;-60
2021/10/22 11:28:13;;;;;;;11.83;4.37;;;;;;;;;;4983420;28;20215;-60
2021/10/22 11:33:10;;;;;;;7.03;3.63;;;;;;;;;;4971979;28;20234;-60
2021/10/22 11:35:36;;;;;;;6.10;2.67;;;;;;;;;;4991730;28;20175;-58
2021/10/22 11:38:04;;;;;;;5.33;2.37;;;;;;;;;;4976461;28;20432;-59
2021/10/22 11:40:30;;;;;;;7.97;2.70;;;;;;;;;;4956609;28;20168;-58
2021/10/22 11:43:06;;;;;;;4.67;2.10;;;;;;;;;;4976885;28;20263;-59
2021/10/22 11:45:32;;;;;;;5.43;2.27;;;;;;;;;;4959912;28;20179;-57
2021/10/22 11:47:59;;;;;;;7.20;2.50;;;;;;;;;;4964611;28;20179;-58
2021/10/22 11:50:32;;;;;;;7.90;2.63;;;;;;;;;;4976552;28;20652;-59
2021/10/22 11:52:59;;;;;;;4.40;2.20;;;;;;;;;;4965473;28;20223;-58
2021/10/22 11:55:26;;;;;;;7.07;2.33;;;;;;;;;;4972636;28;20587;-58
2021/10/22 11:57:54;;;;;;;6.60;2.60;;;;;;;;;;4989845;28;20229;-59
2021/10/22 12:00:21;;;;;;;6.90;2.57;;;;;;;;;;4956282;28;20670;-59
2021/10/22 12:02:48;;;;;;;8.70;2.60;;;;;;;;;;4965586;28;20642;-59
2021/10/22 12:05:14;;;;;;;3.67;1.87;;;;;;;;;;4979706;28;20571;-59
2021/10/22 12:07:55;;;;;;;4.37;2.90;;;;;;;;;;4972416;28;20258;-59
2021/10/22 12:10:21;;;;;;;4.17;2.30;;;;;;;;;;4969721;28;20587;-59
2021/10/22 12:12:48;;;;;;;7.17;2.27;;;;;;;;;;4993623;28;20187;-59
2021/10/22 12:15:19;;;;;;;8.53;2.97;;;;;;;;;;4980919;28;20176;-59
2021/10/22 12:17:46;;;;;;;5.97;2.40;;;;;;;;;;4977104;28;20386;-58
2021/10/22 12:20:12;;;;;;;11.53;3.60;;;;;;;;;;4986110;28;20179;-58
2021/10/22 12:22:40;;;;;;;8.57;2.60;;;;;;;;;;4994429;28;20273;-59
2021/10/22 12:25:20;;;;;;;8.57;2.50;;;;;;;;;;4977516;28;20215;-59
2021/10/22 12:27:53;;;;;;;12.40;3.00;;;;;;;;;;4975748;28;20175;-62
2021/10/22 12:30:20;;;;;;;6.23;2.60;;;;;;;;;;4979461;28;20207;-63
2021/10/22 12:33:07;;;;;;;13.87;3.93;;;;;;;;;;4977398;28;20682;-61
2021/10/22 12:35:35;;;;;;;6.17;2.50;;;;;;;;;;4938265;28;20179;-62
2021/10/22 12:38:06;;;;;;;8.13;2.40;;;;;;;;;;4961583;28;20207;-62
2021/10/22 12:40:40;;;;;;;6.77;2.93;;;;;;;;;;4959209;28;20232;-64
2021/10/22 12:43:08;;;;;;;6.20;2.50;;;;;;;;;;4971845;28;20180;-61
2021/10/22 12:45:40;;;;;;;6.97;2.23;;;;;;;;;;4953380;28;20184;-62
2021/10/22 12:48:08;;;;;;;8.90;2.83;;;;;;;;;;4967506;28;20261;-61
2021/10/22 12:50:35;;;;;;;6.47;2.33;;;;;;;;;;4984408;28;20645;-62
2021/10/22 12:53:03;;;;;;;11.23;2.97;;;;;;;;;;4949443;28;20861;-61
2021/10/22 12:55:29;;;;;;;7.37;2.30;;;;;;;;;;4947822;28;20181;-63
2021/10/22 12:58:14;;;;;;;5.33;2.30;;;;;;;;;;4942039;28;20251;-61
2021/10/22 13:00:41;;;;;;;4.60;2.33;;;;;;;;;;4940341;28;20211;-61
2021/10/22 13:03:07;;;;;;;4.77;2.43;;;;;;;;;;4968218;28;20199;-61
2021/10/22 13:05:35;;;;;;;5.43;1.90;;;;;;;;;;4942915;28;20185;-61
2021/10/22 13:20:46;;;;;;;7.13;2.27;;;;;;;;;;4969223;28;20603;-63
2021/10/22 13:23:14;;;;;;;6.90;2.37;;;;;;;;;;4986662;28;20191;-61
2021/10/22 13:25:41;;;;;;;4.63;2.60;;;;;;;;;;4963493;28;20267;-62
2021/10/22 13:28:08;;;;;;;5.43;2.57;;;;;;;;;;4977961;28;20180;-61
2021/10/22 13:30:41;;;;;;;5.30;2.50;;;;;;;;;;4944670;28;20456;-62
2021/10/22 13:33:15;;;;;;;5.07;2.07;;;;;;;;;;4956883;28;20558;-62
2021/10/22 13:35:45;;;;;;;8.63;2.30;;;;;;;;;;4951954;28;20231;-61
2021/10/22 13:38:16;;;;;;;4.30;2.30;;;;;;;;;;4959786;28;20188;-62
2021/10/22 13:40:42;;;;;;;4.57;1.97;;;;;;;;;;4945289;28;20235;-62
2021/10/22 13:43:09;;;;;;;6.83;2.03;;;;;;;;;;4959718;28;20492;-62
2021/10/22 13:45:35;;;;;;;4.47;1.90;;;;;;;;;;4972999;28;20238;-62
2021/10/22 13:48:04;;;;;;;4.63;1.90;;;;;;;;;;4983063;28;20183;-61
2021/10/22 13:50:30;;;;;;;3.93;2.40;;;;;;;;;;4977995;28;20303;-63
2021/10/22 13:52:59;;;;;;;4.67;2.23;;;;;;;;;;4974301;28;20179;-61
2021/10/22 13:55:25;;;;;;;2.53;2.07;;;;;;;;;;4949720;29;20189;-62
2021/10/22 13:57:52;;;;;;;3.77;1.97;;;;;;;;;;4954130;28;20218;-61
2021/10/22 14:00:19;;;;;;;5.60;2.37;;;;;;;;;;4955525;28;20184;-62
2021/10/22 14:02:49;;;;;;;4.33;2.13;;;;;;;;;;4964887;28;20645;-62
2021/10/22 14:05:18;;;;;;;8.03;2.07;;;;;;;;;;4936125;28;20251;-62
2021/10/22 14:07:44;;;;;;;5.43;1.77;;;;;;;;;;4942169;28;20176;-62
2021/10/22 14:10:17;;;;;;;5.10;1.90;;;;;;;;;;4948498;28;20204;-61
2021/10/22 14:12:57;;;;;;;4.33;2.43;;;;;;;;;;4958422;28;20567;-61
2021/10/22 14:16:02;;;;;;;5.00;1.90;;;;;;;;;;4973334;28;20591;-61
2021/10/22 14:18:36;;;;;;;4.33;1.87;;;;;;;;;;4956783;28;20211;-61
2021/10/22 14:24:03;;;;;;;4.70;2.10;;;;;;;;;;4968344;28;20263;-61
2021/10/22 14:29:16;;;;;;;11.87;2.27;;;;;;;;;;4966694;28;20187;-61
2021/10/22 14:31:42;;;;;;;7.00;2.10;;;;;;;;;;4926608;28;20285;-61
2021/10/22 14:34:17;;;;;;;3.30;2.60;;;;;;;;;;4968389;28;20229;-61
2021/10/22 14:36:46;;;;;;;6.07;2.10;;;;;;;;;;4952314;28;20289;-61
2021/10/22 14:39:24;;;;;;;4.07;1.57;;;;;;;;;;4939539;28;20572;-61
2021/10/22 14:42:14;;;;;;;5.83;2.20;;;;;;;;;;4964312;28;20195;-60
2021/10/22 14:44:43;;;;;;;5.43;2.17;;;;;;;;;;4948947;28;20553;-62
2021/10/22 14:47:20;;;;;;;7.60;1.90;;;;;;;;;;4957087;28;20210;-62
2021/10/22 14:49:49;;;;;;;5.73;2.07;;;;;;;;;;4947671;29;20195;-61
2021/10/22 14:52:36;;;;;;;5.93;2.23;;;;;;;;;;4964828;28;20229;-62
2021/10/22 14:55:37;;;;;;;5.17;2.40;;;;;;;;;;4953057;28;20736;-61
2021/10/22 14:58:08;;;;;;;5.37;2.23;;;;;;;;;;4965229;28;20262;-61
2021/10/22 15:00:41;;;;;;;3.50;1.60;;;;;;;;;;4953585;28;20653;-61
2021/10/22 15:03:31;;;;;;;5.87;1.63;;;;;;;;;;4971393;28;20267;-61
2021/10/22 15:05:57;;;;;;;4.03;2.00;;;;;;;;;;4941997;28;20192;-61
2021/10/22 15:08:23;;;;;;;3.60;1.93;;;;;;;;;;4974018;28;20179;-60
2021/10/22 15:10:50;;;;;;;5.23;1.60;;;;;;;;;;4963750;28;20196;-62
2021/10/22 15:13:17;;;;;;;4.63;2.30;;;;;;;;;;4958677;28;20180;-62
2021/10/22 15:15:44;;;;;;;4.80;2.10;;;;;;;;;;4952007;28;20252;-62
2021/10/22 15:18:11;;;;;;;5.60;2.23;;;;;;;;;;4966152;28;20299;-62
2021/10/22 15:20:58;;;;;;;8.50;1.93;;;;;;;;;;4970004;28;20176;-62
2021/10/22 15:23:26;;;;;;;4.47;1.33;;;;;;;;;;4983395;28;20251;-62
2021/10/22 15:25:53;;;;;;;3.77;2.10;;;;;;;;;;4955855;28;20196;-62
2021/10/22 15:28:22;;;;;;;7.90;2.27;;;;;;;;;;4962512;28;20230;-62
2021/10/22 15:30:48;;;;;;;4.07;1.90;;;;;;;;;;4953588;28;20211;-62
2021/10/22 15:33:15;;;;;;;4.93;2.23;;;;;;;;;;4948062;28;20184;-62
2021/10/22 15:35:41;;;;;;;8.83;2.13;;;;;;;;;;4983761;28;20592;-63